createdAt,value
2023-04-29T00:01:59.192Z,101323.41
2023-04-29T00:04:27.020Z,101329.44
2023-04-29T00:06:54.795Z,101322.50
2023-04-29T00:09:22.652Z,101321.56
2023-04-29T00:11:50.504Z,101324.28
2023-04-29T00:14:18.459Z,101320.81
2023-04-29T00:16:45.934Z,101319.00
2023-04-29T00:19:13.512Z,101316.38
2023-04-29T00:21:41.552Z,101319.94
2023-04-29T00:24:09.017Z,101313.72
2023-04-29T00:26:36.373Z,101323.44
2023-04-29T00:29:03.848Z,101320.78
2023-04-29T00:31:33.049Z,101320.59
2023-04-29T00:34:00.749Z,101314.47
2023-04-29T00:36:28.591Z,101316.25
2023-04-29T00:38:56.099Z,101310.06
2023-04-29T00:41:24.474Z,101306.44
2023-04-29T00:43:52.925Z,101305.63
2023-04-29T00:46:20.580Z,101305.78
2023-04-29T00:48:48.351Z,101301.34
2023-04-29T00:51:17.296Z,101301.41
2023-04-29T00:53:46.527Z,101303.13
2023-04-29T00:56:15.988Z,101305.59
2023-04-29T00:58:50.001Z,101309.03
2023-04-29T01:01:17.864Z,101304.84
2023-04-29T01:03:46.027Z,101309.09
2023-04-29T01:06:29.298Z,101312.53
2023-04-29T01:09:18.029Z,101307.19
2023-04-29T01:12:16.411Z,101305.28
2023-04-29T01:14:53.335Z,101301.78
2023-04-29T01:17:26.962Z,101304.47
2023-04-29T01:19:57.138Z,101299.16
2023-04-29T01:22:24.877Z,101297.44
2023-04-29T01:24:52.953Z,101289.59
2023-04-29T01:27:34.606Z,101296.47
2023-04-29T01:30:13.504Z,101290.38
2023-04-29T01:33:08.194Z,101296.41
2023-04-29T01:36:00.864Z,101303.38
2023-04-29T01:38:44.915Z,101303.44
2023-04-29T01:41:23.751Z,101311.28
2023-04-29T01:43:58.919Z,101316.47
2023-04-29T01:46:28.756Z,101322.53
2023-04-29T01:48:58.863Z,101321.50
2023-04-29T01:51:28.455Z,101329.38
2023-04-29T01:53:55.970Z,101330.94
2023-04-29T01:56:23.644Z,101328.31
2023-04-29T01:59:17.220Z,101339.00
2023-04-29T02:02:10.736Z,101334.81
2023-04-29T02:04:46.307Z,101339.09
2023-04-29T02:07:13.881Z,101345.09
2023-04-29T02:09:41.582Z,101349.50
2023-04-29T02:12:12.123Z,101348.59
2023-04-29T02:14:39.888Z,101345.91
2023-04-29T02:17:07.635Z,101350.31
2023-04-29T02:19:35.198Z,101352.00
2023-04-29T02:22:02.623Z,101354.66
2023-04-29T02:24:30.375Z,101352.97
2023-04-29T02:26:59.191Z,101349.44
2023-04-29T02:29:27.374Z,101346.00
2023-04-29T02:31:55.489Z,101346.00
2023-04-29T02:34:24.258Z,101350.38
2023-04-29T02:36:51.740Z,101344.19
2023-04-29T02:39:22.573Z,101352.06
2023-04-29T02:41:50.112Z,101351.31
2023-04-29T02:44:17.625Z,101353.06
2023-04-29T02:46:45.958Z,101353.13
2023-04-29T02:49:14.166Z,101357.47
2023-04-29T02:51:42.517Z,101353.22
2023-04-29T02:54:11.450Z,101356.59
2023-04-29T02:56:38.953Z,101358.22
2023-04-29T02:59:06.541Z,101354.03
2023-04-29T03:01:34.210Z,101352.31
2023-04-29T03:04:02.272Z,101347.75
2023-04-29T03:06:30.115Z,101354.84
2023-04-29T03:08:57.898Z,101353.09
2023-04-29T03:11:25.483Z,101356.56
2023-04-29T03:13:52.848Z,101347.63
2023-04-29T03:16:22.189Z,101355.50
2023-04-29T03:18:49.997Z,101351.25
2023-04-29T03:21:17.844Z,101351.09
2023-04-29T03:23:45.469Z,101343.25
2023-04-29T03:26:19.388Z,101343.31
2023-04-29T03:28:47.409Z,101352.03
2023-04-29T03:31:16.658Z,101356.41
2023-04-29T03:33:44.805Z,101336.50
2023-04-29T03:36:12.613Z,101343.41
2023-04-29T03:39:05.175Z,101347.00
2023-04-29T03:41:32.846Z,101346.94
2023-04-29T03:44:01.084Z,101347.94
2023-04-29T03:46:30.277Z,101338.25
2023-04-29T03:48:58.773Z,101337.22
2023-04-29T03:51:26.670Z,101341.50
2023-04-29T03:54:01.891Z,101343.94
2023-04-29T03:56:29.419Z,101346.56
2023-04-29T03:58:56.735Z,101349.19
2023-04-29T04:01:26.520Z,101347.44
2023-04-29T04:03:54.168Z,101350.13
2023-04-29T04:06:22.207Z,101347.44
2023-04-29T04:08:51.462Z,101346.72
2023-04-29T04:11:26.426Z,101341.31
2023-04-29T04:13:58.346Z,101339.63
2023-04-29T04:16:25.960Z,101343.91
2023-04-29T04:18:53.503Z,101329.97
2023-04-29T04:21:21.398Z,101339.72
2023-04-29T04:23:57.242Z,101331.06
2023-04-29T04:26:25.453Z,101331.91
2023-04-29T04:29:07.259Z,101343.06
2023-04-29T04:31:55.943Z,101337.00
2023-04-29T04:34:24.367Z,101337.97
2023-04-29T04:36:53.226Z,101342.19
2023-04-29T04:39:20.785Z,101347.38
2023-04-29T04:41:48.873Z,101346.38
2023-04-29T04:44:16.717Z,101347.38
2023-04-29T04:46:56.826Z,101350.00
2023-04-29T04:49:47.196Z,101356.06
2023-04-29T04:52:14.841Z,101351.75
2023-04-29T04:54:46.685Z,101352.72
2023-04-29T04:57:18.782Z,101352.72
2023-04-29T04:59:47.014Z,101358.97
2023-04-29T05:02:14.524Z,101364.34
2023-04-29T05:04:42.473Z,101365.09
2023-04-29T05:07:10.993Z,101363.38
2023-04-29T05:10:08.781Z,101371.03
2023-04-29T05:12:44.332Z,101379.00
2023-04-29T05:15:12.729Z,101383.34
2023-04-29T05:17:40.959Z,101390.25
2023-04-29T05:20:09.211Z,101391.09
2023-04-29T05:22:36.720Z,101396.44
2023-04-29T05:25:04.351Z,101398.34
2023-04-29T05:27:36.766Z,101403.50
2023-04-29T05:30:07.614Z,101398.22
2023-04-29T05:32:35.152Z,101398.84
2023-04-29T05:35:04.799Z,101405.88
2023-04-29T05:37:34.924Z,101404.31
2023-04-29T05:40:09.869Z,101402.47
2023-04-29T05:42:37.632Z,101404.19
2023-04-29T05:45:05.619Z,101403.19
2023-04-29T05:47:34.030Z,101402.44
2023-04-29T05:50:01.787Z,101401.66
2023-04-29T05:52:29.680Z,101398.22
2023-04-29T05:54:57.928Z,101402.56
2023-04-29T05:57:25.751Z,101405.16
2023-04-29T05:59:57.816Z,101404.28
2023-04-29T06:02:26.070Z,101407.97
2023-04-29T06:04:54.019Z,101402.63
2023-04-29T06:07:21.788Z,101416.53
2023-04-29T06:10:15.459Z,101414.88
2023-04-29T06:12:46.812Z,101419.22
2023-04-29T06:15:14.365Z,101418.41
2023-04-29T06:17:41.833Z,101422.81
2023-04-29T06:20:10.119Z,101423.00
2023-04-29T06:22:39.588Z,101427.34
2023-04-29T06:25:07.503Z,101431.66
2023-04-29T06:27:52.783Z,101430.75
2023-04-29T06:30:23.844Z,101435.22
2023-04-29T06:32:52.009Z,101429.03
2023-04-29T06:35:19.617Z,101436.78
2023-04-29T06:38:05.572Z,101428.91
2023-04-29T06:40:57.888Z,101441.28
2023-04-29T06:43:44.872Z,101439.53
2023-04-29T06:46:13.883Z,101441.25
2023-04-29T06:48:51.291Z,101438.78
2023-04-29T06:51:19.049Z,101439.63
2023-04-29T06:53:47.994Z,101437.88
2023-04-29T06:56:16.945Z,101438.78
2023-04-29T06:58:44.958Z,101447.66
2023-04-29T07:01:12.740Z,101448.53
2023-04-29T07:03:40.613Z,101449.28
2023-04-29T07:06:08.445Z,101447.59
2023-04-29T07:08:35.978Z,101442.41
2023-04-29T07:11:03.961Z,101453.00
2023-04-29T07:13:32.885Z,101452.16
2023-04-29T07:16:00.758Z,101453.94
2023-04-29T07:18:28.717Z,101457.63
2023-04-29T07:21:01.655Z,101467.22
2023-04-29T07:23:29.654Z,101462.84
2023-04-29T07:25:57.048Z,101468.97
2023-04-29T07:28:24.686Z,101477.91
2023-04-29T07:30:53.864Z,101473.34
2023-04-29T07:33:21.462Z,101482.88
2023-04-29T07:35:48.864Z,101486.38
2023-04-29T07:38:16.454Z,101493.41
2023-04-29T07:40:43.952Z,101494.16
2023-04-29T07:43:12.054Z,101494.88
2023-04-29T07:45:40.118Z,101496.53
2023-04-29T07:48:07.656Z,101501.91
2023-04-29T07:50:36.679Z,101501.09
2023-04-29T07:53:04.329Z,101503.72
2023-04-29T07:55:31.954Z,101513.19
2023-04-29T07:58:01.455Z,101517.47
2023-04-29T08:00:28.943Z,101521.84
2023-04-29T08:02:57.943Z,101518.47
2023-04-29T08:05:26.286Z,101518.53
2023-04-29T08:07:54.360Z,101516.72
2023-04-29T08:10:22.863Z,101522.13
2023-04-29T08:12:50.742Z,101516.09
2023-04-29T08:15:18.938Z,101517.94
2023-04-29T08:17:46.616Z,101514.50
2023-04-29T08:20:15.233Z,101523.25
2023-04-29T08:22:42.944Z,101516.38
2023-04-29T08:25:10.866Z,101513.78
2023-04-29T08:27:38.540Z,101518.28
2023-04-29T08:30:06.792Z,101513.13
2023-04-29T08:32:35.484Z,101507.16
2023-04-29T08:35:03.336Z,101514.97
2023-04-29T08:37:31.086Z,101514.97
2023-04-29T08:39:58.634Z,101507.97
2023-04-29T08:42:37.410Z,101523.81
2023-04-29T08:45:06.332Z,101519.31
2023-04-29T08:47:34.419Z,101521.84
2023-04-29T08:50:06.182Z,101522.53
2023-04-29T08:52:34.163Z,101514.69
2023-04-29T08:55:05.594Z,101519.16
2023-04-29T08:57:40.137Z,101522.72
2023-04-29T09:00:10.477Z,101529.78
2023-04-29T09:02:45.242Z,101529.88
2023-04-29T09:05:13.164Z,101531.56
2023-04-29T09:07:42.436Z,101536.88
2023-04-29T09:10:11.076Z,101532.59
2023-04-29T09:12:38.651Z,101528.28
2023-04-29T09:15:07.004Z,101532.78
2023-04-29T09:17:42.303Z,101521.44
2023-04-29T09:20:22.222Z,101544.97
2023-04-29T09:23:07.673Z,101534.47
2023-04-29T09:25:36.537Z,101541.50
2023-04-29T09:28:19.683Z,101543.28
2023-04-29T09:30:47.389Z,101544.19
2023-04-29T09:33:16.855Z,101541.69
2023-04-29T09:35:44.331Z,101548.75
2023-04-29T09:38:16.053Z,101553.97
2023-04-29T09:40:58.246Z,101546.94
2023-04-29T09:43:27.633Z,101542.59
2023-04-29T09:45:55.290Z,101540.97
2023-04-29T09:48:30.980Z,101546.34
2023-04-29T09:51:04.787Z,101548.94
2023-04-29T09:53:32.584Z,101545.50
2023-04-29T09:56:02.271Z,101550.63
2023-04-29T09:58:37.849Z,101547.22
2023-04-29T10:01:06.827Z,101544.63
2023-04-29T10:03:38.998Z,101540.41
2023-04-29T10:06:08.162Z,101549.25
2023-04-29T10:08:36.138Z,101546.66
2023-04-29T10:11:04.718Z,101540.56
2023-04-29T10:13:35.361Z,101544.94
2023-04-29T10:16:16.294Z,101541.38
2023-04-29T10:18:50.621Z,101542.31
2023-04-29T10:21:22.171Z,101545.00
2023-04-29T10:23:50.297Z,101544.16
2023-04-29T10:26:19.601Z,101532.75
2023-04-29T10:28:48.338Z,101531.91
2023-04-29T10:31:18.166Z,101538.88
2023-04-29T10:33:48.040Z,101534.38
2023-04-29T10:36:16.351Z,101533.34
2023-04-29T10:38:50.753Z,101529.78
2023-04-29T10:41:25.784Z,101534.34
2023-04-29T10:43:53.682Z,101537.00
2023-04-29T10:46:26.955Z,101530.84
2023-04-29T10:49:01.784Z,101527.28
2023-04-29T10:51:43.217Z,101528.09
2023-04-29T10:54:14.106Z,101535.00
2023-04-29T10:56:50.508Z,101528.84
2023-04-29T10:59:42.315Z,101531.44
2023-04-29T11:02:12.814Z,101534.88
2023-04-29T11:05:12.528Z,101525.94
2023-04-29T11:07:40.510Z,101515.81
2023-04-29T11:10:08.285Z,101516.16
2023-04-29T11:12:35.831Z,101509.13
2023-04-29T11:15:05.118Z,101517.84
2023-04-29T11:17:36.916Z,101515.00
2023-04-29T11:20:04.937Z,101520.34
2023-04-29T11:22:33.964Z,101512.00
2023-04-29T11:25:07.418Z,101513.06
2023-04-29T11:27:37.749Z,101499.38
2023-04-29T11:30:07.789Z,101497.28
2023-04-29T11:32:38.004Z,101494.16
2023-04-29T11:35:17.770Z,101491.88
2023-04-29T11:37:47.035Z,101481.88
2023-04-29T11:40:15.426Z,101473.50
2023-04-29T11:42:47.946Z,101477.75
2023-04-29T11:45:17.749Z,101480.25
2023-04-29T11:47:46.966Z,101478.69
2023-04-29T11:50:18.026Z,101482.38
2023-04-29T11:52:47.831Z,101479.03
2023-04-29T11:55:15.524Z,101479.31
2023-04-29T11:57:43.014Z,101476.75
2023-04-29T12:00:14.722Z,101476.00
2023-04-29T12:02:47.304Z,101474.00
2023-04-29T12:05:17.155Z,101475.56
2023-04-29T12:07:45.445Z,101470.00
2023-04-29T12:10:13.148Z,101465.94
2023-04-29T12:12:43.170Z,101467.75
2023-04-29T12:15:11.202Z,101463.97
2023-04-29T12:17:39.782Z,101458.56
2023-04-29T12:20:11.512Z,101453.47
2023-04-29T12:22:39.216Z,101455.00
2023-04-29T12:25:08.122Z,101453.88
2023-04-29T12:27:37.167Z,101454.72
2023-04-29T12:30:09.910Z,101454.44
2023-04-29T12:32:38.811Z,101451.97
2023-04-29T12:35:07.470Z,101454.66
2023-04-29T12:37:35.567Z,101451.41
2023-04-29T12:40:03.025Z,101451.47
2023-04-29T12:42:36.450Z,101453.75
2023-04-29T12:45:06.709Z,101444.66
2023-04-29T12:47:37.765Z,101444.13
2023-04-29T12:50:07.291Z,101446.63
2023-04-29T12:52:36.742Z,101437.25
2023-04-29T12:55:05.086Z,101441.81
2023-04-29T12:57:32.669Z,101430.44
2023-04-29T13:00:00.543Z,101438.28
2023-04-29T13:02:28.731Z,101435.19
2023-04-29T13:04:56.667Z,101440.31
2023-04-29T13:07:24.430Z,101432.00
2023-04-29T13:09:52.138Z,101447.59
2023-04-29T13:12:19.750Z,101442.50
2023-04-29T13:14:47.828Z,101449.69
2023-04-29T13:17:15.732Z,101444.44
2023-04-29T13:19:51.105Z,101438.88
2023-04-29T13:22:19.759Z,101440.31
2023-04-29T13:24:47.423Z,101439.63
2023-04-29T13:27:15.104Z,101446.81
2023-04-29T13:29:42.701Z,101437.81
2023-04-29T13:32:10.336Z,101432.44
2023-04-29T13:34:38.093Z,101429.06
2023-04-29T13:37:05.841Z,101433.16
2023-04-29T13:39:37.911Z,101435.44
2023-04-29T13:42:06.587Z,101423.56
2023-04-29T13:44:59.082Z,101421.06
2023-04-29T13:47:25.902Z,101425.22
2023-04-29T13:53:18.528Z,101415.56
2023-04-29T13:56:07.599Z,101412.09
2023-04-29T14:03:07.131Z,101422.00
2023-04-29T14:05:35.087Z,101411.66
2023-04-29T14:08:02.717Z,101409.31
2023-04-29T14:10:30.283Z,101415.84
2023-04-29T14:12:57.789Z,101411.28
2023-04-29T14:15:25.515Z,101410.66
2023-04-29T14:17:53.575Z,101418.72
2023-04-29T14:20:21.074Z,101405.53
2023-04-29T14:22:48.608Z,101400.09
2023-04-29T14:25:16.146Z,101394.75
2023-04-29T14:27:43.559Z,101400.91
2023-04-29T14:30:11.722Z,101399.94
2023-04-29T14:32:39.179Z,101399.03
2023-04-29T14:35:07.241Z,101392.72
2023-04-29T14:37:34.717Z,101391.66
2023-04-29T14:40:02.153Z,101386.09
2023-04-29T14:42:29.776Z,101399.00
2023-04-29T14:44:57.190Z,101386.38
2023-04-29T14:47:24.924Z,101389.63
2023-04-29T14:49:52.354Z,101391.97
2023-04-29T14:52:19.873Z,101393.56
2023-04-29T14:54:47.350Z,101389.28
2023-04-29T14:57:14.826Z,101392.84
2023-04-29T14:59:42.188Z,101385.06
2023-04-29T15:02:09.757Z,101387.13
2023-04-29T15:04:38.149Z,101389.84
2023-04-29T15:07:06.122Z,101387.81
2023-04-29T15:09:33.528Z,101390.38
2023-04-29T15:12:02.353Z,101384.66
2023-04-29T15:14:29.884Z,101376.31
2023-04-29T15:16:57.585Z,101383.19
2023-04-29T15:19:26.326Z,101382.31
2023-04-29T15:21:53.840Z,101387.75
2023-04-29T15:24:21.428Z,101391.41
2023-04-29T15:26:48.913Z,101382.63
2023-04-29T15:29:16.357Z,101386.16
2023-04-29T15:31:43.928Z,101381.88
2023-04-29T15:34:11.552Z,101388.84
2023-04-29T15:36:39.275Z,101385.44
2023-04-29T15:39:06.669Z,101394.34
2023-04-29T15:41:34.191Z,101393.34
2023-04-29T15:44:01.636Z,101392.53
2023-04-29T15:46:31.517Z,101398.63
2023-04-29T15:48:59.068Z,101398.69
2023-04-29T15:51:26.747Z,101395.47
2023-04-29T15:53:54.204Z,101396.59
2023-04-29T15:56:21.766Z,101398.59
2023-04-29T15:58:49.177Z,101403.09
2023-04-29T16:01:16.588Z,101404.13
2023-04-29T16:03:44.143Z,101403.47
2023-04-29T16:06:11.849Z,101400.84
2023-04-29T16:08:39.301Z,101393.59
2023-04-29T16:11:07.107Z,101401.50
2023-04-29T16:13:36.268Z,101390.09
2023-04-29T16:16:04.245Z,101395.59
2023-04-29T16:18:32.466Z,101394.72
2023-04-29T16:21:00.054Z,101394.00
2023-04-29T16:23:27.505Z,101401.94
2023-04-29T16:25:55.676Z,101393.75
2023-04-29T16:28:23.115Z,101392.72
2023-04-29T16:30:50.686Z,101393.75
2023-04-29T16:33:18.236Z,101386.88
2023-04-29T16:35:45.935Z,101395.25
2023-04-29T16:38:13.589Z,101387.22
2023-04-29T16:40:41.461Z,101387.09
2023-04-29T16:43:09.004Z,101384.50
2023-04-29T16:45:36.574Z,101383.66
2023-04-29T16:48:04.263Z,101380.97
2023-04-29T16:50:32.072Z,101382.75
2023-04-29T16:52:59.493Z,101380.97
2023-04-29T16:55:26.881Z,101385.38
2023-04-29T16:57:54.291Z,101387.06
2023-04-29T17:00:21.862Z,101381.81
2023-04-29T17:02:51.407Z,101381.81
2023-04-29T17:05:19.745Z,101377.47
2023-04-29T17:07:47.470Z,101378.16
2023-04-29T17:10:15.000Z,101380.84
2023-04-29T17:12:42.775Z,101386.31
2023-04-29T17:15:10.844Z,101384.69
2023-04-29T17:17:38.590Z,101388.22
2023-04-29T17:20:07.000Z,101389.00
2023-04-29T17:22:34.683Z,101383.72
2023-04-29T17:25:02.510Z,101381.88
2023-04-29T17:27:29.989Z,101382.66
2023-04-29T17:29:57.744Z,101379.97
2023-04-29T17:32:28.772Z,101382.00
2023-04-29T17:34:57.729Z,101382.97
2023-04-29T17:37:25.934Z,101388.38
2023-04-29T17:39:53.955Z,101393.78
2023-04-29T17:42:21.697Z,101390.50
2023-04-29T17:44:49.757Z,101387.03
2023-04-29T17:47:17.532Z,101396.09
2023-04-29T17:49:45.429Z,101387.44
2023-04-29T17:52:13.260Z,101391.88
2023-04-29T17:54:41.827Z,101396.22
2023-04-29T17:57:09.590Z,101390.19
2023-04-29T17:59:37.073Z,101394.75
2023-04-29T18:02:04.548Z,101391.34
2023-04-29T18:04:32.148Z,101396.69
2023-04-29T18:06:59.661Z,101393.13
2023-04-29T18:09:27.174Z,101405.53
2023-04-29T18:11:54.609Z,101395.94
2023-04-29T18:14:22.230Z,101396.00
2023-04-29T18:16:49.910Z,101401.25
2023-04-29T18:19:17.547Z,101405.84
2023-04-29T18:21:44.996Z,101404.09
2023-04-29T18:24:12.557Z,101406.91
2023-04-29T18:26:40.076Z,101406.94
2023-04-29T18:29:07.714Z,101406.22
2023-04-29T18:31:35.326Z,101408.88
2023-04-29T18:34:02.836Z,101413.38
2023-04-29T18:36:30.321Z,101408.22
2023-04-29T18:38:57.857Z,101417.13
2023-04-29T18:41:25.367Z,101420.75
2023-04-29T18:43:53.460Z,101420.34
2023-04-29T18:46:21.147Z,101422.22
2023-04-29T18:48:48.836Z,101430.41
2023-04-29T18:51:16.389Z,101429.59
2023-04-29T18:53:43.974Z,101433.28
2023-04-29T18:56:11.507Z,101435.16
2023-04-29T18:58:39.154Z,101439.59
2023-04-29T19:01:06.864Z,101433.41
2023-04-29T19:03:34.472Z,101435.19
2023-04-29T19:06:01.970Z,101437.78
2023-04-29T19:08:29.642Z,101438.75
2023-04-29T19:10:58.689Z,101444.91
2023-04-29T19:13:29.326Z,101436.16
2023-04-29T19:15:56.701Z,101444.97
2023-04-29T19:18:24.417Z,101445.94
2023-04-29T19:20:53.807Z,101444.16
2023-04-29T19:23:21.563Z,101446.88
2023-04-29T19:25:48.949Z,101443.47
2023-04-29T19:28:16.461Z,101448.78
2023-04-29T19:30:43.879Z,101461.16
2023-04-29T19:33:11.451Z,101457.63
2023-04-29T19:35:38.950Z,101464.69
2023-04-29T19:38:06.357Z,101461.19
2023-04-29T19:40:33.809Z,101470.03
2023-04-29T19:43:01.431Z,101459.59
2023-04-29T19:45:29.161Z,101459.63
2023-04-29T19:47:56.992Z,101463.13
2023-04-29T19:50:24.657Z,101466.72
2023-04-29T19:52:52.258Z,101475.53
2023-04-29T19:55:19.817Z,101479.97
2023-04-29T19:57:47.482Z,101477.31
2023-04-29T20:00:15.501Z,101482.59
2023-04-29T20:02:43.363Z,101475.56
2023-04-29T20:05:11.605Z,101475.56
2023-04-29T20:07:39.377Z,101487.94
2023-04-29T20:10:07.805Z,101485.31
2023-04-29T20:12:35.913Z,101497.66
2023-04-29T20:15:05.878Z,101503.78
2023-04-29T20:17:33.980Z,101506.44
2023-04-29T20:20:01.974Z,101507.34
2023-04-29T20:22:29.641Z,101502.06
2023-04-29T20:24:57.059Z,101514.38
2023-04-29T20:27:24.723Z,101518.75
2023-04-29T20:29:52.551Z,101518.78
2023-04-29T20:32:20.492Z,101520.47
2023-04-29T20:34:48.098Z,101528.38
2023-04-29T20:37:15.939Z,101527.47
2023-04-29T20:39:43.347Z,101517.81
2023-04-29T20:42:10.846Z,101520.44
2023-04-29T20:44:38.717Z,101524.81
2023-04-29T20:47:06.417Z,101526.59
2023-04-29T20:49:33.896Z,101537.06
2023-04-29T20:52:02.106Z,101536.19
2023-04-29T20:54:29.765Z,101534.44
2023-04-29T20:56:57.462Z,101536.13
2023-04-29T20:59:25.350Z,101536.97
2023-04-29T21:01:52.829Z,101535.22
2023-04-29T21:04:21.202Z,101536.91
2023-04-29T21:06:50.812Z,101536.88
2023-04-29T21:09:22.432Z,101543.94
2023-04-29T21:11:50.002Z,101543.03
2023-04-29T21:14:18.794Z,101548.38
2023-04-29T21:16:46.490Z,101545.78
2023-04-29T21:19:13.836Z,101550.16
2023-04-29T21:21:41.316Z,101541.38
2023-04-29T21:24:08.815Z,101545.66
2023-04-29T21:26:36.833Z,101553.56
2023-04-29T21:29:04.408Z,101543.91
2023-04-29T21:31:32.075Z,101542.03
2023-04-29T21:34:00.615Z,101547.38
2023-04-29T21:36:28.418Z,101546.50
2023-04-29T21:38:56.015Z,101543.75
2023-04-29T21:41:31.024Z,101558.63
2023-04-29T21:44:00.627Z,101550.72
2023-04-29T21:46:29.330Z,101549.00
2023-04-29T21:49:01.103Z,101548.09
2023-04-29T21:51:29.251Z,101543.72
2023-04-29T21:53:56.640Z,101543.75
2023-04-29T21:56:24.593Z,101547.31
2023-04-29T21:58:54.438Z,101540.31
2023-04-29T22:01:48.502Z,101544.59
2023-04-29T22:04:17.211Z,101544.53
2023-04-29T22:06:44.782Z,101536.63
2023-04-29T22:09:12.539Z,101538.34
2023-04-29T22:11:40.210Z,101526.06
2023-04-29T22:14:07.694Z,101534.88
2023-04-29T22:16:36.153Z,101531.41
2023-04-29T22:19:04.319Z,101534.91
2023-04-29T22:21:31.773Z,101540.22
2023-04-29T22:23:59.653Z,101536.59
2023-04-29T22:26:27.153Z,101539.25
2023-04-29T22:28:55.124Z,101538.31
2023-04-29T22:31:22.631Z,101542.63
2023-04-29T22:33:50.562Z,101531.31
2023-04-29T22:36:18.057Z,101536.50
2023-04-29T22:38:45.716Z,101527.72
2023-04-29T22:41:13.831Z,101532.09
2023-04-29T22:43:41.426Z,101535.69
2023-04-29T22:46:09.854Z,101539.13
2023-04-29T22:48:37.409Z,101531.31
2023-04-29T22:51:05.202Z,101535.53
2023-04-29T22:53:33.056Z,101535.53
2023-04-29T22:56:02.129Z,101541.59
2023-04-29T22:58:29.837Z,101540.78
2023-04-29T23:00:57.910Z,101538.09
2023-04-29T23:03:26.693Z,101541.59
2023-04-29T23:06:01.244Z,101542.59
2023-04-29T23:08:28.941Z,101539.09
2023-04-29T23:10:56.361Z,101541.75
2023-04-29T23:13:23.902Z,101548.66
2023-04-29T23:15:52.428Z,101544.28
2023-04-29T23:18:20.133Z,101545.22
2023-04-29T23:20:47.980Z,101545.97
2023-04-29T23:23:15.607Z,101549.41
2023-04-29T23:25:43.683Z,101552.88
2023-04-29T23:28:11.521Z,101549.41
2023-04-29T23:30:39.068Z,101548.47
2023-04-29T23:33:06.680Z,101550.09
2023-04-29T23:35:34.117Z,101546.59
2023-04-29T23:38:01.571Z,101552.72
2023-04-29T23:40:30.249Z,101543.97
2023-04-29T23:42:59.391Z,101550.16
2023-04-29T23:45:27.022Z,101539.75
2023-04-29T23:47:54.558Z,101539.63
2023-04-29T23:50:22.075Z,101546.59
2023-04-29T23:52:49.572Z,101542.22
2023-04-29T23:55:17.240Z,101542.19
2023-04-29T23:57:44.760Z,101540.50
